Time;durP1;ratioP1;P1;durP2;ratioP2;P2;SDS_P1;SDS_P2;PMS_P1;PMS_P2;Temp;Humidity;BMP_temperature;BMP_pressure;BME280_temperature;BME280_humidity;BME280_pressure;Samples;Min_cycle;Max_cycle;Signal;HPM_P1;HPM_P2
2021/08/18 00:00:41;;;;;;;18.90;9.00;;;16.70;99.90;;;;;;5032879;28;20469;-59
2021/08/18 00:03:08;;;;;;;17.27;8.53;;;16.80;99.90;;;;;;5032222;28;20461;-59
2021/08/18 00:05:38;;;;;;;17.03;9.00;;;16.70;99.90;;;;;;5032166;28;20448;-59
2021/08/18 00:08:06;;;;;;;14.47;8.10;;;16.80;99.90;;;;;;5032628;28;20455;-59
2021/08/18 00:10:34;;;;;;;17.80;8.97;;;16.80;99.90;;;;;;5032515;28;20982;-59
2021/08/18 00:13:01;;;;;;;18.07;9.47;;;16.80;99.90;;;;;;5031897;28;20453;-59
2021/08/18 00:15:29;;;;;;;18.23;8.87;;;16.90;99.90;;;;;;5032142;28;20449;-59
2021/08/18 00:18:00;;;;;;;18.67;8.90;;;16.90;99.90;;;;;;5032522;28;20486;-59
2021/08/18 00:20:27;;;;;;;14.77;8.40;;;16.80;99.90;;;;;;5032369;28;20475;-59
2021/08/18 00:22:56;;;;;;;17.10;8.93;;;16.80;99.90;;;;;;5031589;28;20988;-59
2021/08/18 00:25:24;;;;;;;19.00;9.30;;;16.60;99.90;;;;;;5032301;28;20879;-59
2021/08/18 00:27:51;;;;;;;22.30;10.20;;;16.60;99.90;;;;;;5032770;28;20827;-59
2021/08/18 00:30:18;;;;;;;14.20;8.90;;;16.70;99.90;;;;;;5032186;28;20451;-59
2021/08/18 00:32:45;;;;;;;20.57;9.20;;;16.70;99.90;;;;;;5031326;28;20530;-59
2021/08/18 00:35:12;;;;;;;20.90;10.00;;;16.60;99.90;;;;;;5032010;28;20962;-59
2021/08/18 00:37:39;;;;;;;18.13;9.50;;;16.40;99.90;;;;;;5032205;28;21029;-59
2021/08/18 00:40:09;;;;;;;17.93;9.90;;;16.40;99.90;;;;;;5032343;28;20965;-59
2021/08/18 00:42:38;;;;;;;17.00;9.70;;;16.40;99.90;;;;;;5031867;28;20453;-59
2021/08/18 00:45:07;;;;;;;21.73;9.90;;;16.30;99.90;;;;;;5031633;28;20553;-59
2021/08/18 00:47:41;;;;;;;20.43;9.93;;;16.40;99.90;;;;;;5031704;28;20829;-59
2021/08/18 00:50:09;;;;;;;17.43;9.03;;;16.30;99.90;;;;;;5031050;28;20958;-59
2021/08/18 00:52:36;;;;;;;19.90;8.97;;;16.30;99.90;;;;;;5031777;28;20457;-59
2021/08/18 00:55:03;;;;;;;21.67;10.20;;;16.40;99.90;;;;;;5031391;28;20503;-59
2021/08/18 00:57:32;;;;;;;20.07;9.40;;;16.40;99.90;;;;;;5031637;28;20598;-59
2021/08/18 01:00:00;;;;;;;16.30;8.40;;;16.50;99.90;;;;;;5031496;28;20903;-59
2021/08/18 01:02:27;;;;;;;19.70;8.90;;;16.50;99.90;;;;;;5031274;28;21029;-59
2021/08/18 01:04:54;;;;;;;15.27;8.57;;;16.60;99.90;;;;;;5031242;28;21024;-59
2021/08/18 01:07:23;;;;;;;21.90;9.60;;;16.40;99.90;;;;;;5031538;28;20510;-59
2021/08/18 01:09:50;;;;;;;19.10;9.60;;;16.40;99.90;;;;;;5031843;28;20824;-59
2021/08/18 01:12:17;;;;;;;17.40;9.40;;;16.40;99.90;;;;;;5031125;28;20476;-59
2021/08/18 01:14:46;;;;;;;17.03;8.53;;;16.40;99.90;;;;;;5031782;28;20966;-59
2021/08/18 01:17:14;;;;;;;14.00;8.70;;;16.40;99.90;;;;;;5031597;28;20530;-59
2021/08/18 01:19:41;;;;;;;20.10;9.50;;;16.40;99.90;;;;;;5031761;28;20448;-59
2021/08/18 01:22:08;;;;;;;18.47;8.83;;;16.50;99.90;;;;;;5030942;28;20476;-59
2021/08/18 01:24:35;;;;;;;21.57;9.60;;;16.50;99.90;;;;;;5034175;28;20464;-59
2021/08/18 01:27:02;;;;;;;16.30;8.90;;;16.50;99.90;;;;;;5035569;28;20456;-59
2021/08/18 01:29:30;;;;;;;19.03;8.47;;;16.50;99.90;;;;;;5035541;28;20874;-59
2021/08/18 01:31:59;;;;;;;17.30;9.17;;;16.60;99.90;;;;;;5035229;28;20480;-59
2021/08/18 01:34:26;;;;;;;16.40;9.60;;;16.50;99.90;;;;;;5034888;28;20540;-59
2021/08/18 01:36:53;;;;;;;17.80;9.03;;;16.40;99.90;;;;;;5035407;28;20811;-60
2021/08/18 01:39:20;;;;;;;17.23;9.00;;;16.40;99.90;;;;;;5034840;28;20530;-58
2021/08/18 01:41:47;;;;;;;19.00;9.40;;;16.30;99.90;;;;;;5035279;28;20465;-59
2021/08/18 01:44:14;;;;;;;17.00;9.40;;;16.30;99.90;;;;;;5034763;28;20531;-59
2021/08/18 01:46:42;;;;;;;19.40;9.63;;;16.50;99.90;;;;;;5035451;28;20449;-59
2021/08/18 01:49:09;;;;;;;16.00;8.90;;;16.60;99.90;;;;;;5035195;28;20445;-59
2021/08/18 01:51:36;;;;;;;18.57;8.90;;;16.60;99.90;;;;;;5035213;28;20484;-59
2021/08/18 01:54:03;;;;;;;19.07;9.17;;;16.50;99.90;;;;;;5034719;28;20495;-59
2021/08/18 01:56:30;;;;;;;16.53;9.43;;;16.40;99.90;;;;;;5035655;28;20779;-59
2021/08/18 01:58:57;;;;;;;15.70;8.30;;;16.40;99.90;;;;;;5035025;28;20526;-59
2021/08/18 02:01:25;;;;;;;16.00;8.80;;;16.50;99.90;;;;;;5034974;28;20495;-59
2021/08/18 02:03:53;;;;;;;19.47;8.80;;;16.60;99.90;;;;;;5034694;28;20444;-59
2021/08/18 02:06:20;;;;;;;17.03;8.70;;;16.60;99.90;;;;;;5035000;28;20452;-59
2021/08/18 02:08:47;;;;;;;18.37;8.93;;;16.60;99.90;;;;;;5034503;28;20503;-59
2021/08/18 02:11:14;;;;;;;16.87;8.47;;;16.60;99.90;;;;;;5034434;28;20894;-59
2021/08/18 02:13:42;;;;;;;15.03;9.00;;;16.60;99.90;;;;;;5034345;28;20954;-59
2021/08/18 02:16:09;;;;;;;17.20;8.60;;;16.60;99.90;;;;;;5034792;28;20942;-59
2021/08/18 02:18:36;;;;;;;21.80;10.57;;;16.60;99.90;;;;;;5034421;28;20981;-59
2021/08/18 02:21:05;;;;;;;19.20;9.27;;;16.60;99.90;;;;;;5034651;28;20478;-59
2021/08/18 02:23:32;;;;;;;16.43;9.17;;;16.50;99.90;;;;;;5034213;28;20526;-59
2021/08/18 02:25:59;;;;;;;19.67;9.80;;;16.40;99.90;;;;;;5034698;28;20449;-58
2021/08/18 02:28:26;;;;;;;17.97;9.60;;;16.30;99.90;;;;;;5034508;28;20503;-58
2021/08/18 02:30:53;;;;;;;14.43;8.20;;;16.30;99.90;;;;;;5034596;28;20525;-58
2021/08/18 02:33:24;;;;;;;22.20;10.00;;;16.30;99.90;;;;;;5034061;28;20452;-58
2021/08/18 02:35:51;;;;;;;17.47;9.57;;;16.30;99.90;;;;;;5034273;28;20452;-58
2021/08/18 02:38:20;;;;;;;19.10;9.43;;;16.30;99.90;;;;;;5034107;28;20480;-58
2021/08/18 02:40:47;;;;;;;18.63;9.53;;;16.40;99.90;;;;;;5034451;28;20522;-57
2021/08/18 02:43:14;;;;;;;19.10;9.23;;;16.40;99.90;;;;;;5033765;28;20947;-58
2021/08/18 02:45:41;;;;;;;17.80;9.33;;;16.40;99.90;;;;;;5034389;28;20453;-58
2021/08/18 02:48:08;;;;;;;17.70;9.07;;;16.30;99.90;;;;;;5033696;28;20943;-58
2021/08/18 02:50:35;;;;;;;19.23;10.07;;;16.20;99.90;;;;;;5032122;28;20563;-57
2021/08/18 02:53:02;;;;;;;16.60;8.73;;;16.30;99.90;;;;;;5033941;28;20452;-58
2021/08/18 02:55:31;;;;;;;18.37;9.93;;;16.30;99.90;;;;;;5034106;28;20448;-58
2021/08/18 02:57:58;;;;;;;21.33;10.07;;;16.20;99.90;;;;;;5034315;28;20484;-57
2021/08/18 03:00:25;;;;;;;21.77;9.63;;;16.20;99.90;;;;;;5033652;28;20538;-57
2021/08/18 03:02:53;;;;;;;18.83;9.40;;;16.20;99.90;;;;;;5033780;28;20440;-58
2021/08/18 03:05:20;;;;;;;18.43;9.00;;;16.10;99.90;;;;;;5033915;28;20448;-58
2021/08/18 03:07:47;;;;;;;17.83;9.50;;;16.20;99.90;;;;;;5033604;28;20495;-58
2021/08/18 03:10:14;;;;;;;17.23;9.27;;;16.20;99.90;;;;;;5033560;28;20456;-58
2021/08/18 03:12:43;;;;;;;17.80;9.67;;;16.20;99.90;;;;;;5033486;28;20875;-58
2021/08/18 03:15:11;;;;;;;21.30;10.20;;;16.20;99.90;;;;;;5033892;28;20461;-58
2021/08/18 03:17:38;;;;;;;22.40;10.30;;;16.30;99.90;;;;;;5033348;28;20494;-58
2021/08/18 03:20:07;;;;;;;21.20;10.03;;;16.10;99.90;;;;;;5033260;28;20970;-58
2021/08/18 03:22:35;;;;;;;20.60;10.53;;;16.20;99.90;;;;;;5032658;28;20457;-58
2021/08/18 03:25:02;;;;;;;20.33;10.20;;;16.20;99.90;;;;;;5033748;28;20549;-58
2021/08/18 03:27:29;;;;;;;18.77;9.67;;;16.20;99.90;;;;;;5033311;28;20506;-58
2021/08/18 03:29:57;;;;;;;18.83;10.13;;;16.00;99.90;;;;;;5033316;28;20449;-58
2021/08/18 03:32:24;;;;;;;18.43;9.93;;;16.00;99.90;;;;;;5033171;28;20464;-58
2021/08/18 03:34:51;;;;;;;19.40;9.90;;;15.90;99.90;;;;;;5032625;28;20975;-58
2021/08/18 03:37:18;;;;;;;20.93;9.83;;;15.90;99.90;;;;;;5032563;28;20464;-58
2021/08/18 03:39:45;;;;;;;20.03;9.87;;;15.80;99.90;;;;;;5032661;28;20530;-57
2021/08/18 03:42:12;;;;;;;21.60;9.57;;;15.70;99.90;;;;;;5032874;28;20468;-58
2021/08/18 03:44:39;;;;;;;24.50;10.67;;;15.60;99.90;;;;;;5032519;28;20449;-58
2021/08/18 03:47:08;;;;;;;17.97;9.17;;;15.60;99.90;;;;;;5031927;28;20954;-58
2021/08/18 03:49:35;;;;;;;22.83;11.53;;;15.50;99.90;;;;;;5032835;28;20453;-58
2021/08/18 03:52:02;;;;;;;19.50;10.07;;;15.40;99.90;;;;;;5031780;28;20473;-58
2021/08/18 03:54:29;;;;;;;19.27;9.47;;;15.30;99.90;;;;;;5032997;28;20856;-57
2021/08/18 03:56:56;;;;;;;20.10;10.10;;;15.20;99.90;;;;;;5032632;28;20453;-58
2021/08/18 03:59:23;;;;;;;19.80;10.07;;;15.20;99.90;;;;;;5032082;28;20997;-58
2021/08/18 04:01:50;;;;;;;21.83;10.57;;;15.20;99.90;;;;;;5032050;28;20476;-58
2021/08/18 04:04:18;;;;;;;21.87;10.87;;;15.30;99.90;;;;;;5032481;28;20499;-58
2021/08/18 04:06:45;;;;;;;24.57;11.37;;;15.30;99.90;;;;;;5031848;28;20457;-57
2021/08/18 04:09:12;;;;;;;21.90;10.20;;;15.40;99.90;;;;;;5032473;28;20449;-57
2021/08/18 04:11:39;;;;;;;22.07;10.83;;;15.50;99.90;;;;;;5032191;28;20468;-57
2021/08/18 04:14:10;;;;;;;19.77;10.63;;;15.50;99.90;;;;;;5032039;28;20878;-57
2021/08/18 04:16:37;;;;;;;23.13;10.80;;;15.50;99.90;;;;;;5032074;28;20514;-57
2021/08/18 04:19:04;;;;;;;26.50;10.53;;;15.30;99.90;;;;;;5032497;28;20911;-57
2021/08/18 04:21:32;;;;;;;22.50;10.53;;;15.20;99.90;;;;;;5031760;28;21010;-58
2021/08/18 04:23:59;;;;;;;23.93;9.77;;;15.20;99.90;;;;;;5030520;28;20452;-58
2021/08/18 04:26:26;;;;;;;25.33;11.07;;;15.10;99.90;;;;;;5031851;28;20869;-57
2021/08/18 04:28:54;;;;;;;25.40;11.80;;;15.00;99.90;;;;;;5032202;28;20444;-57
2021/08/18 04:31:22;;;;;;;24.93;10.77;;;15.00;99.90;;;;;;5032038;28;20476;-58
2021/08/18 04:33:49;;;;;;;23.43;10.73;;;15.10;99.90;;;;;;5031727;28;20463;-58
2021/08/18 04:36:17;;;;;;;23.50;9.97;;;15.20;99.90;;;;;;5031738;28;20448;-57
2021/08/18 04:38:45;;;;;;;23.20;10.77;;;15.30;99.90;;;;;;5031950;28;21017;-57
2021/08/18 04:41:12;;;;;;;22.77;10.80;;;15.50;99.90;;;;;;5032125;28;20476;-57
2021/08/18 04:43:39;;;;;;;22.03;10.60;;;15.50;99.90;;;;;;5030025;28;20460;-57
2021/08/18 04:46:06;;;;;;;22.83;10.97;;;15.50;99.90;;;;;;5048459;28;20447;-58
2021/08/18 04:48:33;;;;;;;26.20;11.90;;;15.20;99.90;;;;;;5042539;28;20444;-58
2021/08/18 04:51:02;;;;;;;23.57;11.87;;;15.00;99.90;;;;;;5062269;22;20519;-52
2021/08/18 04:53:29;;;;;;;24.73;11.70;;;15.00;99.90;;;;;;5069902;28;20471;-51
2021/08/18 04:55:59;;;;;;;23.87;11.90;;;15.10;99.90;;;;;;5071540;28;20956;-51
2021/08/18 04:58:26;;;;;;;29.47;11.50;;;15.20;99.90;;;;;;5056769;28;20502;-51
2021/08/18 05:00:53;;;;;;;22.77;10.60;;;15.30;99.90;;;;;;5064632;28;20508;-51
2021/08/18 05:03:20;;;;;;;20.27;10.20;;;15.40;99.90;;;;;;5051219;28;20466;-52
2021/08/18 05:05:47;;;;;;;21.63;10.50;;;15.40;99.90;;;;;;5051358;28;20452;-52
2021/08/18 05:08:14;;;;;;;22.77;11.47;;;15.50;99.90;;;;;;5051834;28;20463;-51
2021/08/18 05:10:42;;;;;;;25.17;11.20;;;15.40;99.90;;;;;;5051295;28;20459;-51
2021/08/18 05:13:10;;;;;;;24.37;11.03;;;15.30;99.90;;;;;;5050871;28;20503;-51
2021/08/18 05:15:37;;;;;;;22.03;10.90;;;15.40;99.90;;;;;;5050960;28;20462;-51
2021/08/18 05:18:04;;;;;;;20.87;10.10;;;15.40;99.90;;;;;;5050850;28;20456;-52
2021/08/18 05:20:32;;;;;;;22.60;12.03;;;15.40;99.90;;;;;;5051208;28;20993;-52
2021/08/18 05:22:59;;;;;;;23.47;10.50;;;15.50;99.90;;;;;;5048708;28;20475;-52
2021/08/18 05:25:26;;;;;;;25.00;10.20;;;15.20;99.90;;;;;;5050780;28;20447;-51
2021/08/18 05:27:53;;;;;;;27.90;11.10;;;15.10;99.90;;;;;;5050858;28;21010;-51
2021/08/18 05:30:21;;;;;;;22.90;10.80;;;15.20;99.90;;;;;;5050866;28;20505;-51
2021/08/18 05:32:48;;;;;;;22.03;10.93;;;15.30;99.90;;;;;;5050640;28;20479;-51
2021/08/18 05:35:16;;;;;;;23.97;10.90;;;15.40;99.90;;;;;;5051211;28;20510;-52
2021/08/18 05:37:44;;;;;;;23.07;11.20;;;15.40;99.90;;;;;;5051047;28;20451;-50
2021/08/18 05:40:12;;;;;;;21.50;10.63;;;15.50;99.90;;;;;;5051195;28;20574;-52
2021/08/18 05:42:39;;;;;;;23.87;11.47;;;15.50;99.90;;;;;;5050427;28;21007;-51
2021/08/18 05:45:07;;;;;;;24.73;11.90;;;15.50;99.90;;;;;;5050890;28;21141;-51
2021/08/18 05:47:36;;;;;;;21.10;10.47;;;15.50;99.90;;;;;;5051138;28;20514;-52
2021/08/18 05:50:03;;;;;;;25.23;10.60;;;15.50;99.90;;;;;;5051359;28;20505;-51
2021/08/18 05:52:30;;;;;;;21.53;11.23;;;15.80;99.90;;;;;;5050640;28;20482;-51
2021/08/18 05:55:02;;;;;;;27.43;11.33;;;15.60;99.90;;;;;;5050680;28;20523;-51
2021/08/18 05:57:34;;;;;;;23.90;13.10;;;15.60;99.90;;;;;;5050644;28;20489;-51
2021/08/18 06:00:01;;;;;;;22.53;11.73;;;15.70;99.90;;;;;;5051522;28;20483;-51
2021/08/18 06:02:29;;;;;;;23.07;11.60;;;15.50;99.90;;;;;;5050514;28;20467;-51
2021/08/18 06:04:57;;;;;;;26.73;11.37;;;15.50;99.90;;;;;;5050676;28;20823;-50
2021/08/18 06:07:24;;;;;;;23.90;12.00;;;15.40;99.90;;;;;;5050444;28;20478;-51
2021/08/18 06:09:51;;;;;;;22.07;10.67;;;15.50;99.90;;;;;;5052666;28;20454;-51
2021/08/18 06:12:18;;;;;;;22.73;11.93;;;15.60;99.90;;;;;;5053607;28;20475;-52
2021/08/18 06:14:45;;;;;;;26.13;12.07;;;15.50;99.90;;;;;;5045634;28;20456;-51
2021/08/18 06:17:12;;;;;;;22.07;11.03;;;15.50;99.90;;;;;;5048269;28;20547;-51
2021/08/18 06:19:39;;;;;;;22.90;10.70;;;15.60;99.90;;;;;;5039018;28;20851;-52
2021/08/18 06:22:08;;;;;;;23.10;10.40;;;15.70;99.90;;;;;;5047020;28;20472;-50
2021/08/18 06:24:42;;;;;;;22.77;10.60;;;15.70;99.90;;;;;;5054590;28;20505;-51
2021/08/18 06:27:10;;;;;;;25.27;11.23;;;15.70;99.90;;;;;;5054818;28;20451;-52
2021/08/18 06:29:37;;;;;;;23.30;11.70;;;15.80;99.90;;;;;;5054262;28;20467;-52
2021/08/18 06:32:05;;;;;;;23.37;11.70;;;15.80;99.90;;;;;;5038390;28;20476;-51
2021/08/18 06:34:32;;;;;;;22.97;11.10;;;15.80;99.90;;;;;;5044614;28;20455;-51
2021/08/18 06:37:02;;;;;;;22.00;10.43;;;15.90;99.90;;;;;;5053819;28;20451;-52
2021/08/18 06:39:32;;;;;;;24.53;12.50;;;15.90;99.90;;;;;;5054125;28;20519;-52
2021/08/18 06:42:00;;;;;;;19.67;10.90;;;15.90;99.90;;;;;;5054152;28;20471;-52
2021/08/18 06:44:27;;;;;;;25.60;10.83;;;15.90;99.90;;;;;;5053767;28;20953;-52
2021/08/18 06:46:54;;;;;;;22.07;10.23;;;15.90;99.90;;;;;;5051341;28;20467;-52
2021/08/18 06:49:21;;;;;;;20.90;10.43;;;15.90;99.90;;;;;;5053974;28;20960;-52
2021/08/18 06:51:48;;;;;;;21.97;10.63;;;15.90;99.90;;;;;;5053334;28;21001;-51
2021/08/18 06:54:16;;;;;;;22.10;10.13;;;16.00;99.90;;;;;;5053098;28;20456;-52
2021/08/18 06:56:45;;;;;;;20.90;10.80;;;16.00;99.90;;;;;;5054027;28;20440;-51
2021/08/18 06:59:12;;;;;;;18.47;10.13;;;16.00;99.90;;;;;;5053737;28;20537;-52
2021/08/18 07:01:39;;;;;;;21.73;10.47;;;15.90;99.90;;;;;;5053493;28;20501;-52
2021/08/18 07:04:06;;;;;;;21.07;11.37;;;16.00;99.90;;;;;;5052097;28;20451;-52
2021/08/18 07:06:33;;;;;;;20.97;9.63;;;16.00;99.90;;;;;;5053195;28;20457;-51
2021/08/18 07:09:00;;;;;;;22.63;10.90;;;16.00;99.90;;;;;;5052191;28;20454;-51
2021/08/18 07:11:28;;;;;;;22.67;10.87;;;16.10;99.90;;;;;;5052688;28;20537;-51
2021/08/18 07:14:00;;;;;;;22.03;11.87;;;16.00;99.90;;;;;;5051750;28;20462;-51
2021/08/18 07:16:29;;;;;;;20.80;11.23;;;16.00;99.90;;;;;;5052972;28;20884;-52
2021/08/18 07:18:59;;;;;;;20.53;10.90;;;15.90;99.90;;;;;;5053007;28;20452;-52
2021/08/18 07:21:28;;;;;;;21.43;10.53;;;15.90;99.90;;;;;;5052196;28;20989;-52
2021/08/18 07:23:58;;;;;;;25.40;11.33;;;15.90;99.90;;;;;;5052828;28;20460;-51
2021/08/18 07:26:27;;;;;;;28.77;11.33;;;16.00;99.90;;;;;;5051956;28;20467;-52
2021/08/18 07:28:59;;;;;;;21.63;10.00;;;16.00;99.90;;;;;;5052952;28;20895;-52
2021/08/18 07:31:28;;;;;;;25.63;12.30;;;16.10;99.90;;;;;;5052636;28;20478;-52
2021/08/18 07:33:56;;;;;;;24.60;10.33;;;16.20;99.90;;;;;;5053398;28;20464;-52
2021/08/18 07:36:24;;;;;;;18.60;10.27;;;16.20;99.90;;;;;;5052677;28;20452;-54
2021/08/18 07:38:53;;;;;;;28.07;11.27;;;16.10;99.90;;;;;;5051679;28;20467;-52
2021/08/18 07:41:22;;;;;;;20.33;10.23;;;16.10;99.90;;;;;;5051829;28;20562;-53
2021/08/18 07:43:52;;;;;;;19.97;11.47;;;16.10;99.90;;;;;;5052343;28;20452;-52
2021/08/18 07:46:24;;;;;;;19.27;10.13;;;16.20;99.90;;;;;;5052634;28;20527;-52
2021/08/18 07:48:52;;;;;;;19.63;10.00;;;16.20;99.90;;;;;;5052981;28;20960;-52
2021/08/18 07:51:19;;;;;;;21.83;10.10;;;16.20;99.90;;;;;;5052374;28;20483;-52
2021/08/18 07:53:49;;;;;;;20.00;10.50;;;16.20;99.90;;;;;;5052328;28;20521;-53
2021/08/18 07:56:16;;;;;;;19.10;10.10;;;16.20;99.90;;;;;;5051269;28;20871;-53
2021/08/18 07:58:44;;;;;;;19.80;10.00;;;16.20;99.90;;;;;;5052325;28;20460;-53
2021/08/18 08:01:12;;;;;;;20.30;10.20;;;16.20;99.90;;;;;;5052141;28;20569;-53
2021/08/18 08:03:43;;;;;;;17.90;9.17;;;16.30;99.90;;;;;;5050963;28;20506;-54
2021/08/18 08:06:11;;;;;;;19.60;9.23;;;16.20;99.90;;;;;;5052605;28;20528;-53
2021/08/18 08:08:39;;;;;;;23.37;9.77;;;16.40;99.90;;;;;;5052464;28;20455;-52
2021/08/18 08:11:09;;;;;;;20.33;9.53;;;16.30;99.90;;;;;;5052134;28;20573;-52
2021/08/18 08:13:38;;;;;;;20.47;10.20;;;16.30;99.90;;;;;;5051296;28;20456;-54
2021/08/18 08:16:06;;;;;;;18.53;9.43;;;16.30;99.90;;;;;;5052580;28;20444;-53
2021/08/18 08:18:33;;;;;;;18.73;9.90;;;16.20;99.90;;;;;;5052469;28;20452;-52
2021/08/18 08:21:01;;;;;;;22.87;9.57;;;16.20;99.90;;;;;;5051826;28;20483;-52
2021/08/18 08:23:30;;;;;;;18.17;9.27;;;16.20;99.90;;;;;;5051556;28;20456;-54
2021/08/18 08:25:58;;;;;;;25.67;9.60;;;16.30;99.90;;;;;;5052355;28;20513;-54
2021/08/18 08:28:26;;;;;;;19.97;10.53;;;16.50;99.90;;;;;;5051734;28;20880;-53
2021/08/18 08:30:54;;;;;;;20.70;9.17;;;16.60;99.90;;;;;;5051767;28;20444;-53
2021/08/18 08:33:22;;;;;;;19.73;9.80;;;16.70;99.90;;;;;;5051275;28;20455;-51
2021/08/18 08:35:49;;;;;;;21.10;10.43;;;16.70;99.90;;;;;;5051900;28;20965;-53
2021/08/18 08:38:19;;;;;;;21.40;9.53;;;16.70;99.90;;;;;;5051827;28;20518;-52
2021/08/18 08:40:46;;;;;;;17.50;9.00;;;16.80;99.90;;;;;;5050150;28;20529;-52
2021/08/18 08:43:15;;;;;;;17.97;8.70;;;16.90;99.90;;;;;;5042612;28;20472;-52
2021/08/18 08:45:46;;;;;;;19.23;9.43;;;16.90;99.90;;;;;;5051117;28;21011;-53
2021/08/18 08:48:14;;;;;;;22.03;10.40;;;17.00;99.90;;;;;;5040342;28;20539;-52
2021/08/18 08:50:42;;;;;;;23.10;9.93;;;17.40;99.90;;;;;;5045325;28;20779;-53
2021/08/18 08:53:09;;;;;;;19.57;10.23;;;17.90;99.90;;;;;;5050245;28;20499;-52
2021/08/18 08:55:37;;;;;;;20.40;9.83;;;18.20;99.90;;;;;;5051555;28;20505;-53
2021/08/18 08:58:05;;;;;;;19.03;9.57;;;18.40;99.90;;;;;;5051623;28;20512;-52
2021/08/18 09:00:32;;;;;;;19.50;9.63;;;18.70;99.90;;;;;;5051793;28;20479;-53
2021/08/18 09:03:15;;;;;;;20.00;9.87;;;19.00;99.90;;;;;;5044228;28;20520;-53
2021/08/18 09:05:42;;;;;;;20.00;9.30;;;19.10;99.90;;;;;;5031913;28;20506;-52
2021/08/18 09:08:11;;;;;;;16.00;8.73;;;19.10;99.90;;;;;;5031761;28;20522;-52
2021/08/18 09:10:40;;;;;;;19.90;9.50;;;19.20;99.90;;;;;;5039485;28;20452;-53
2021/08/18 09:13:15;;;;;;;16.87;8.53;;;19.20;99.90;;;;;;5051347;28;20533;-54
2021/08/18 09:15:44;;;;;;;17.42;9.55;;;19.30;99.90;;;;;;5048675;28;20447;-54
2021/08/18 09:18:12;;;;;;;15.57;9.07;;;19.40;99.90;;;;;;5050482;28;20232;-55
2021/08/18 09:20:42;;;;;;;19.70;10.13;;;19.50;99.90;;;;;;5044179;28;20562;-55
2021/08/18 09:23:13;;;;;;;16.53;8.90;;;19.70;99.90;;;;;;5047165;28;20506;-53
2021/08/18 09:25:43;;;;;;;18.03;9.30;;;19.80;99.90;;;;;;5031277;28;20465;-54
2021/08/18 09:28:22;;;;;;;17.03;9.43;;;20.00;99.90;;;;;;5038694;28;20454;-54
2021/08/18 09:30:57;;;;;;;20.60;10.03;;;20.10;99.90;;;;;;5051055;28;20448;-54
2021/08/18 09:33:35;;;;;;;16.37;9.47;;;20.30;99.90;;;;;;5050880;28;20492;-54
2021/08/18 09:36:02;;;;;;;18.80;9.43;;;20.40;99.90;;;;;;5051274;28;20495;-54
2021/08/18 09:38:31;;;;;;;17.57;10.17;;;20.70;99.90;;;;;;5051320;28;20452;-54
2021/08/18 09:41:01;;;;;;;17.03;9.57;;;21.10;99.90;;;;;;5051166;28;20483;-54
2021/08/18 09:43:30;;;;;;;16.07;8.93;;;21.60;99.90;;;;;;5051225;28;20467;-53
2021/08/18 09:46:00;;;;;;;17.10;9.73;;;22.00;99.90;;;;;;5054665;28;20465;-53
2021/08/18 09:48:30;;;;;;;16.10;9.10;;;22.20;99.90;;;;;;5055666;28;20534;-52
2021/08/18 09:51:00;;;;;;;17.50;9.90;;;22.20;99.90;;;;;;5055466;28;20501;-52
2021/08/18 09:53:30;;;;;;;16.47;9.67;;;22.20;99.90;;;;;;5055104;28;20980;-54
2021/08/18 09:56:05;;;;;;;17.10;9.80;;;22.10;99.90;;;;;;5055207;28;20831;-54
2021/08/18 09:58:34;;;;;;;17.13;9.20;;;22.80;99.90;;;;;;5055163;28;20493;-54
2021/08/18 10:01:02;;;;;;;16.83;9.97;;;23.20;99.90;;;;;;5052457;28;20980;-56
2021/08/18 10:03:32;;;;;;;15.88;9.70;;;23.00;99.90;;;;;;5050494;28;20467;-55
2021/08/18 10:06:02;;;;;;;15.03;9.37;;;23.70;99.90;;;;;;5048493;28;20287;-56
2021/08/18 10:08:31;;;;;;;15.33;9.83;;;24.20;99.90;;;;;;5068995;28;20488;-55
2021/08/18 10:11:01;;;;;;;17.60;9.90;;;24.20;99.90;;;;;;5056205;28;20443;-53
2021/08/18 10:13:31;;;;;;;18.70;10.23;;;23.60;99.90;;;;;;5037229;28;21036;-53
2021/08/18 10:15:59;;;;;;;14.80;9.37;;;23.20;99.90;;;;;;5037365;28;20459;-53
2021/08/18 10:18:33;;;;;;;15.57;9.70;;;23.30;99.90;;;;;;5051840;28;20467;-53
2021/08/18 10:21:02;;;;;;;17.63;9.67;;;23.40;99.90;;;;;;5052694;28;20486;-53
2021/08/18 10:23:57;;;;;;;19.10;10.80;;;23.70;99.90;;;;;;5052532;28;21215;-53
2021/08/18 10:27:01;;;;;;;20.43;10.37;;;23.90;99.90;;;;;;5010695;28;20456;-53
2021/08/18 10:29:34;;;;;;;16.80;10.27;;;23.90;99.90;;;;;;5052825;28;20809;-53
2021/08/18 10:32:10;;;;;;;18.27;10.77;;;23.90;99.90;;;;;;5053309;28;20529;-53
2021/08/18 10:34:45;;;;;;;18.33;9.80;;;23.50;99.90;;;;;;5054204;28;21007;-54
2021/08/18 10:37:28;;;;;;;15.87;9.77;;;23.40;99.90;;;;;;5054252;28;20875;-53
2021/08/18 10:39:57;;;;;;;19.07;11.23;;;23.70;99.90;;;;;;5053769;28;20954;-54
2021/08/18 10:42:39;;;;;;;16.83;10.10;;;23.80;99.90;;;;;;5053790;28;20475;-53
2021/08/18 10:45:38;;;;;;;18.47;10.57;;;24.00;99.90;;;;;;5051813;28;20934;-53
2021/08/18 10:48:10;;;;;;;17.03;9.60;;;24.30;99.90;;;;;;5033492;28;20441;-53
2021/08/18 10:50:48;;;;;;;14.97;9.30;;;24.40;99.90;;;;;;5048176;28;20803;-53
2021/08/18 10:53:34;;;;;;;19.00;11.27;;;24.80;99.90;;;;;;5034106;28;20537;-55
2021/08/18 10:56:01;;;;;;;18.77;11.20;;;25.10;99.90;;;;;;5055829;22;20523;-60
2021/08/18 10:58:31;;;;;;;20.03;11.23;;;24.90;99.90;;;;;;5045080;28;20450;-60
2021/08/18 11:01:00;;;;;;;17.20;9.93;;;24.80;99.90;;;;;;5051487;28;20980;-60
2021/08/18 11:03:30;;;;;;;17.47;11.00;;;24.90;99.90;;;;;;5032993;28;20916;-60
2021/08/18 11:05:58;;;;;;;18.17;10.70;;;24.50;99.90;;;;;;5032647;28;20555;-60
2021/08/18 11:08:26;;;;;;;16.77;10.47;;;24.00;99.90;;;;;;5032925;28;20457;-60
2021/08/18 11:11:17;;;;;;;18.00;11.00;;;24.00;99.90;;;;;;5047475;28;20506;-60
2021/08/18 11:13:46;;;;;;;18.00;10.73;;;23.70;99.90;;;;;;5048122;28;20528;-60
2021/08/18 11:16:17;;;;;;;20.67;10.87;;;23.20;99.90;;;;;;5032735;28;20474;-60
2021/08/18 11:18:55;;;;;;;20.00;10.67;;;22.20;99.90;;;;;;5033095;28;20452;-60
2021/08/18 11:21:25;;;;;;;17.60;10.03;;;22.00;99.90;;;;;;5051057;28;20540;-59
2021/08/18 11:23:55;;;;;;;18.17;10.03;;;21.90;99.90;;;;;;5050576;28;20498;-59
2021/08/18 11:26:25;;;;;;;20.97;9.87;;;21.60;99.90;;;;;;5051113;28;20824;-60
2021/08/18 11:29:03;;;;;;;16.87;10.50;;;21.80;99.90;;;;;;5051302;28;20444;-60
2021/08/18 11:31:37;;;;;;;18.90;10.17;;;21.60;99.90;;;;;;5051116;28;20489;-60
2021/08/18 11:34:06;;;;;;;20.80;10.83;;;21.50;99.90;;;;;;5050695;28;20454;-59
2021/08/18 11:36:35;;;;;;;17.83;10.90;;;21.50;99.90;;;;;;5050808;28;20471;-59
2021/08/18 11:39:05;;;;;;;18.30;10.97;;;21.40;99.90;;;;;;5051187;28;20447;-60
2021/08/18 11:41:34;;;;;;;21.13;10.87;;;21.80;99.90;;;;;;5032242;28;21060;-59
2021/08/18 11:44:01;;;;;;;20.10;10.57;;;21.90;99.90;;;;;;5032275;28;20445;-59
2021/08/18 11:46:29;;;;;;;19.10;11.03;;;21.80;99.90;;;;;;5032320;28;20469;-59
2021/08/18 11:49:08;;;;;;;19.50;11.10;;;21.70;99.90;;;;;;5032102;28;20448;-59
2021/08/18 11:51:38;;;;;;;18.30;9.93;;;22.00;99.90;;;;;;5035810;28;20494;-60
2021/08/18 11:54:06;;;;;;;19.70;10.67;;;22.50;99.90;;;;;;5032120;28;20802;-60
2021/08/18 11:56:33;;;;;;;21.17;11.97;;;22.70;99.90;;;;;;5031908;28;20476;-60
2021/08/18 11:59:02;;;;;;;16.90;10.10;;;22.50;99.90;;;;;;5032114;28;20498;-60
2021/08/18 12:01:29;;;;;;;20.07;11.00;;;22.50;99.90;;;;;;5031715;28;20473;-60
2021/08/18 12:03:57;;;;;;;19.87;11.10;;;22.70;99.90;;;;;;5031946;28;20528;-59
2021/08/18 12:06:36;;;;;;;21.93;12.10;;;22.50;99.90;;;;;;5036940;28;20463;-60
2021/08/18 12:09:06;;;;;;;21.77;11.77;;;22.40;99.90;;;;;;5050475;28;20456;-59
2021/08/18 12:11:35;;;;;;;17.87;10.90;;;22.20;99.90;;;;;;5050361;28;20436;-60
2021/08/18 12:14:14;;;;;;;21.30;11.10;;;22.30;99.90;;;;;;5042567;28;20494;-60
2021/08/18 12:16:41;;;;;;;24.17;12.80;;;22.20;99.90;;;;;;5032107;28;20591;-60
2021/08/18 12:19:25;;;;;;;25.43;13.17;;;21.40;99.90;;;;;;5043323;28;20447;-60
2021/08/18 12:22:13;;;;;;;21.47;11.70;;;21.10;99.90;;;;;;5041886;28;20477;-59
2021/08/18 12:24:41;;;;;;;19.90;10.50;;;21.40;99.90;;;;;;5043740;28;20491;-59
2021/08/18 12:27:10;;;;;;;20.23;10.57;;;21.70;99.90;;;;;;5034206;28;20794;-59
2021/08/18 12:29:38;;;;;;;27.43;10.90;;;22.00;99.90;;;;;;5052225;28;20455;-60
2021/08/18 12:32:08;;;;;;;21.27;11.20;;;22.00;99.90;;;;;;5051003;28;21011;-59
2021/08/18 12:34:39;;;;;;;23.87;12.20;;;21.90;99.90;;;;;;5052425;28;20464;-60
2021/08/18 12:37:10;;;;;;;21.00;10.70;;;21.70;99.90;;;;;;5052315;28;20475;-59
2021/08/18 12:39:41;;;;;;;19.27;10.83;;;21.90;99.90;;;;;;5051732;28;20459;-60